Terminal Aerodrome Forecast
Issued by NWS Binghamton, NY

Home | Current Version | Previous Version | Text Only | Print | Product List | Glossary On
Versions: 1 2 3 4 5 6 7 8 9 10 11 12 13 14 15 16 17 18 19 20 21 22
523
FTUS41 KBGM 051732
TAFSYR
TAF
KSYR 051732Z 0518/0618 27015G25KT P6SM OVC025
      TEMPO 0518/0522 SCT025 OVC035
     FM060000 27008KT P6SM OVC025
     FM061200 00000KT P6SM OVC015
     FM061400 11005KT P6SM SCT040 OVC200=

USA.gov is the U.S. government's official web portal to all federal, state and local government web resources and services.